Aérodrome :
LOGIN :

S'inscrire | Disclaimer

   EN    FR    IT 

 










Légende :    VFR   VFR Marginal   IFR   IFR Intensif   IFR Très Intensif
Visi : 
Plafond : 
>= 8 km
>= 3000ft
5 à 8 km
1000 à 3000 ft
1500m à 5 km
500 à 1000 ft
800 à 1500m
200 à 500 ft
< 800m
< 200 ft
Symboles :   Orages  Brouillard  Fortes neiges  Fortes précipitations  Vent > 20 kt
SIGMETs :   Divers  Orages  Givrage  Turbulence  Onde Orograph.  Cendres Volcan.







- Altitude de l'aérodrome : 37 ft
- Code IATA : OLB


LIEO - Olbia Costa Smeralda

DERNIER METAR :
  • 211250Z 04015KT 9999 FEW040 15/07 Q1025

METARs EXPIRÉS :
  • 211220Z 05016KT 9999 FEW040 16/07 Q1025
  • 211150Z 04016KT 9999 FEW040 15/06 Q1025
  • 211120Z 03016KT 9999 SCT045 15/07 Q1025
  • 211050Z 04017KT 010V070 9999 R05/0600VP1500D R23/P1500N SCT045 15/07 Q1025
  • 211020Z 04016KT 9999 SCT045 15/07 Q1025

TAF TAF LIEO
Valide du 21 à 12h jusqu'au 22 à 12h UTC


211100Z 2112/2212 03018KT 9999 SCT040
BECMG 2116/2118 03008KT
Pas de NOTAMs connus pour ce terrain.
2 SIGMETs publiés pour la FIR Roma (LIRR) :
 
Orages noyés dans la masse
LIRR SIGMET 3 VALID 211140/211340 LIIB
LIRR ROMA FIR EMBD TS FCST WI N3738 E01257 - N3718 E01457 - N3628 E01628 - N3628 E01132 - N3727 E01128 - N3738 E01257 TOP FL300 STNR NC=
Turbulence forte
LIRR SIGMET 2 VALID 211200/211500 LIIB
LIRR ROMA FIR SEV TURB FCST WI N3824 E01632 - N3732 E01526 - N3634 E01537 - N3628 E01128 - N3749 E01240 - N3804 E01406 - N3825 E01529 - N3908 E01558 - N3824 E01632 FL010/080 STNR NC=



MET'MAP, la Météo Aéronautique d'un coup d'oeil ! - Copyright ORBIFLY Décembre 2007 - Disclaimer

ORBIFLY MET'MAP TEAM :

Programmation & Développement : Alexandra Zaïnal
Conception & Développement : Baudouin d'Aumeries
Co-Programmation & Développement : Marc-Olivier Méhu
Soutien technique & logistique : Manuel Goepfert

Contact : metmap@orbifly.com




SOURCES & CREDITS :

   NOAA